sensor_id;sensor_type;location;lat;lon;timestamp;pressure;altitude;pressure_sealevel;temperature;humidity
76858;BME280;65830;0.000;0.000;2023-03-11T00:02:16;97930.88;;;12.83;64.56
76858;BME280;65830;0.000;0.000;2023-03-11T00:04:42;97927.59;;;12.81;64.24
76858;BME280;65830;0.000;0.000;2023-03-11T00:07:08;97919.38;;;12.82;64.46
76858;BME280;65830;0.000;0.000;2023-03-11T00:09:34;97918.63;;;12.88;63.76
76858;BME280;65830;0.000;0.000;2023-03-11T00:12:00;97910.16;;;12.78;64.79
76858;BME280;65830;0.000;0.000;2023-03-11T00:14:25;97912.81;;;12.78;64.32
76858;BME280;65830;0.000;0.000;2023-03-11T00:16:51;97921.22;;;12.82;64.64
76858;BME280;65830;0.000;0.000;2023-03-11T00:19:16;97890.72;;;12.78;64.02
76858;BME280;65830;0.000;0.000;2023-03-11T00:21:42;97874.19;;;12.89;64.12
76858;BME280;65830;0.000;0.000;2023-03-11T00:24:07;97871.34;;;12.97;63.72
76858;BME280;65830;0.000;0.000;2023-03-11T00:26:33;97877.84;;;12.88;64.22
76858;BME280;65830;0.000;0.000;2023-03-11T00:28:58;97873.94;;;12.84;64.23
76858;BME280;65830;0.000;0.000;2023-03-11T00:31:24;97867.22;;;12.88;64.14
76858;BME280;65830;0.000;0.000;2023-03-11T00:33:51;97856.19;;;12.91;63.91
76858;BME280;65830;0.000;0.000;2023-03-11T00:36:24;97838.38;;;12.91;63.59
76858;BME280;65830;0.000;0.000;2023-03-11T00:38:53;97846.84;;;13.08;63.27
76858;BME280;65830;0.000;0.000;2023-03-11T00:41:18;97841.88;;;12.99;63.56
76858;BME280;65830;0.000;0.000;2023-03-11T00:43:44;97828.59;;;13.05;63.34
76858;BME280;65830;0.000;0.000;2023-03-11T00:46:09;97822.03;;;13.01;63.33
76858;BME280;65830;0.000;0.000;2023-03-11T00:48:35;97819.53;;;12.93;64.01
76858;BME280;65830;0.000;0.000;2023-03-11T00:51:00;97812.97;;;12.89;63.84
76858;BME280;65830;0.000;0.000;2023-03-11T00:53:26;97791.69;;;12.89;63.94
76858;BME280;65830;0.000;0.000;2023-03-11T00:55:51;97803.56;;;12.86;63.77
76858;BME280;65830;0.000;0.000;2023-03-11T00:58:17;97810.50;;;12.81;64.27
76858;BME280;65830;0.000;0.000;2023-03-11T01:00:49;97816.19;;;12.78;64.50
76858;BME280;65830;0.000;0.000;2023-03-11T01:03:14;97815.13;;;12.65;65.25
76858;BME280;65830;0.000;0.000;2023-03-11T01:05:40;97802.00;;;12.64;64.32
76858;BME280;65830;0.000;0.000;2023-03-11T01:08:05;97801.03;;;12.71;64.48
76858;BME280;65830;0.000;0.000;2023-03-11T01:10:32;97797.00;;;12.89;63.82
76858;BME280;65830;0.000;0.000;2023-03-11T01:12:57;97790.25;;;12.93;63.88
76858;BME280;65830;0.000;0.000;2023-03-11T01:15:27;97782.03;;;12.81;63.83
76858;BME280;65830;0.000;0.000;2023-03-11T01:17:53;97796.19;;;12.88;64.13
76858;BME280;65830;0.000;0.000;2023-03-11T01:20:21;97778.00;;;12.99;63.74
76858;BME280;65830;0.000;0.000;2023-03-11T01:22:46;97763.22;;;12.89;64.02
76858;BME280;65830;0.000;0.000;2023-03-11T01:25:13;97763.03;;;12.91;64.26
76858;BME280;65830;0.000;0.000;2023-03-11T01:27:39;97771.00;;;12.84;64.42
76858;BME280;65830;0.000;0.000;2023-03-11T01:30:05;97766.53;;;12.50;66.10
76858;BME280;65830;0.000;0.000;2023-03-11T01:32:30;97757.13;;;12.54;65.68
76858;BME280;65830;0.000;0.000;2023-03-11T01:34:56;97755.16;;;12.63;65.37
76858;BME280;65830;0.000;0.000;2023-03-11T01:37:22;97765.19;;;12.67;65.26
76858;BME280;65830;0.000;0.000;2023-03-11T01:39:47;97765.97;;;12.61;65.82
76858;BME280;65830;0.000;0.000;2023-03-11T01:42:13;97770.06;;;12.57;65.99
76858;BME280;65830;0.000;0.000;2023-03-11T01:44:38;97782.75;;;12.55;65.78
76858;BME280;65830;0.000;0.000;2023-03-11T01:49:32;97762.63;;;12.46;66.60
76858;BME280;65830;0.000;0.000;2023-03-11T01:52:02;97762.66;;;12.52;66.46
76858;BME280;65830;0.000;0.000;2023-03-11T01:54:36;97754.06;;;12.50;66.07
76858;BME280;65830;0.000;0.000;2023-03-11T01:57:07;97778.22;;;12.49;66.48
76858;BME280;65830;0.000;0.000;2023-03-11T01:59:42;97759.81;;;12.54;65.91
76858;BME280;65830;0.000;0.000;2023-03-11T02:02:22;97747.56;;;12.66;65.59
76858;BME280;65830;0.000;0.000;2023-03-11T02:04:50;97741.25;;;12.67;65.79
76858;BME280;65830;0.000;0.000;2023-03-11T02:07:16;97718.59;;;12.37;66.98
76858;BME280;65830;0.000;0.000;2023-03-11T02:09:43;97722.47;;;12.27;67.28
76858;BME280;65830;0.000;0.000;2023-03-11T02:12:09;97718.84;;;12.42;66.92
76858;BME280;65830;0.000;0.000;2023-03-11T02:14:36;97717.41;;;12.46;66.65
76858;BME280;65830;0.000;0.000;2023-03-11T02:17:04;97738.13;;;12.57;66.67
76858;BME280;65830;0.000;0.000;2023-03-11T02:19:37;97743.22;;;12.52;66.55
76858;BME280;65830;0.000;0.000;2023-03-11T02:22:07;97761.03;;;12.51;66.52
76858;BME280;65830;0.000;0.000;2023-03-11T02:24:36;97769.59;;;12.47;66.88
76858;BME280;65830;0.000;0.000;2023-03-11T02:27:13;97803.94;;;12.42;67.38
76858;BME280;65830;0.000;0.000;2023-03-11T02:29:40;97807.38;;;12.36;67.40
76858;BME280;65830;0.000;0.000;2023-03-11T02:32:08;97817.38;;;12.27;67.81
76858;BME280;65830;0.000;0.000;2023-03-11T02:34:39;97818.91;;;12.15;68.08
76858;BME280;65830;0.000;0.000;2023-03-11T02:37:06;97822.66;;;11.99;68.26
76858;BME280;65830;0.000;0.000;2023-03-11T02:39:33;97815.03;;;11.89;68.28
76858;BME280;65830;0.000;0.000;2023-03-11T02:42:01;97820.63;;;11.79;68.58
76858;BME280;65830;0.000;0.000;2023-03-11T02:44:29;97815.97;;;11.81;68.22
76858;BME280;65830;0.000;0.000;2023-03-11T02:46:55;97817.13;;;11.72;68.56
76858;BME280;65830;0.000;0.000;2023-03-11T02:49:21;97810.22;;;11.78;68.10
76858;BME280;65830;0.000;0.000;2023-03-11T02:51:47;97809.78;;;11.74;68.43
76858;BME280;65830;0.000;0.000;2023-03-11T02:54:12;97810.78;;;11.73;68.47
76858;BME280;65830;0.000;0.000;2023-03-11T02:56:38;97800.28;;;11.65;68.94
76858;BME280;65830;0.000;0.000;2023-03-11T02:59:03;97785.69;;;11.76;68.30
76858;BME280;65830;0.000;0.000;2023-03-11T03:01:29;97781.47;;;11.88;68.03
76858;BME280;65830;0.000;0.000;2023-03-11T03:03:55;97759.91;;;11.98;67.54
76858;BME280;65830;0.000;0.000;2023-03-11T03:06:20;97753.41;;;12.07;66.83
76858;BME280;65830;0.000;0.000;2023-03-11T03:08:49;97741.53;;;12.03;66.88
76858;BME280;65830;0.000;0.000;2023-03-11T03:11:15;97729.47;;;12.07;66.78
76858;BME280;65830;0.000;0.000;2023-03-11T03:13:41;97714.16;;;12.09;66.97
76858;BME280;65830;0.000;0.000;2023-03-11T03:16:06;97711.94;;;12.12;66.62
76858;BME280;65830;0.000;0.000;2023-03-11T03:18:32;97709.97;;;12.28;66.18
76858;BME280;65830;0.000;0.000;2023-03-11T03:20:59;97701.56;;;12.24;66.21
76858;BME280;65830;0.000;0.000;2023-03-11T03:23:24;97700.56;;;12.25;66.53
76858;BME280;65830;0.000;0.000;2023-03-11T03:25:50;97705.63;;;12.14;66.66
76858;BME280;65830;0.000;0.000;2023-03-11T03:28:15;97703.75;;;12.07;66.63
76858;BME280;65830;0.000;0.000;2023-03-11T03:30:43;97706.41;;;12.07;67.13
76858;BME280;65830;0.000;0.000;2023-03-11T03:33:10;97706.84;;;12.11;66.80
76858;BME280;65830;0.000;0.000;2023-03-11T03:35:40;97703.50;;;12.02;66.95
76858;BME280;65830;0.000;0.000;2023-03-11T03:38:12;97701.66;;;12.03;66.78
76858;BME280;65830;0.000;0.000;2023-03-11T03:40:38;97706.78;;;12.04;66.73
76858;BME280;65830;0.000;0.000;2023-03-11T03:43:05;97715.56;;;12.05;66.91
76858;BME280;65830;0.000;0.000;2023-03-11T03:45:33;97708.09;;;12.15;66.32
76858;BME280;65830;0.000;0.000;2023-03-11T03:47:58;97701.09;;;12.14;66.16
76858;BME280;65830;0.000;0.000;2023-03-11T03:50:26;97704.56;;;12.08;66.44
76858;BME280;65830;0.000;0.000;2023-03-11T03:52:54;97711.56;;;12.16;66.23
76858;BME280;65830;0.000;0.000;2023-03-11T03:55:21;97719.53;;;12.16;66.15
76858;BME280;65830;0.000;0.000;2023-03-11T03:57:46;97722.19;;;12.16;66.25
76858;BME280;65830;0.000;0.000;2023-03-11T04:00:13;97729.72;;;12.12;66.66
76858;BME280;65830;0.000;0.000;2023-03-11T04:02:39;97746.06;;;12.09;66.63
76858;BME280;65830;0.000;0.000;2023-03-11T04:05:08;97760.38;;;12.08;66.39
76858;BME280;65830;0.000;0.000;2023-03-11T04:07:35;97771.63;;;12.10;66.15
76858;BME280;65830;0.000;0.000;2023-03-11T04:10:03;97785.75;;;12.10;66.41
76858;BME280;65830;0.000;0.000;2023-03-11T04:12:31;97792.75;;;12.18;65.79
76858;BME280;65830;0.000;0.000;2023-03-11T04:14:57;97797.09;;;12.26;66.17
76858;BME280;65830;0.000;0.000;2023-03-11T04:17:22;97803.41;;;12.25;65.63
76858;BME280;65830;0.000;0.000;2023-03-11T04:19:49;97797.47;;;12.23;66.05
76858;BME280;65830;0.000;0.000;2023-03-11T04:22:15;97810.38;;;12.19;66.29
76858;BME280;65830;0.000;0.000;2023-03-11T04:24:41;97810.31;;;12.12;66.50
76858;BME280;65830;0.000;0.000;2023-03-11T04:27:07;97817.03;;;12.08;66.41
76858;BME280;65830;0.000;0.000;2023-03-11T04:29:33;97815.94;;;12.03;66.41
76858;BME280;65830;0.000;0.000;2023-03-11T04:31:59;97826.53;;;11.96;66.84
76858;BME280;65830;0.000;0.000;2023-03-11T04:34:24;97830.41;;;11.94;66.72
76858;BME280;65830;0.000;0.000;2023-03-11T04:36:51;97840.03;;;11.95;66.90
76858;BME280;65830;0.000;0.000;2023-03-11T04:39:19;97842.44;;;11.89;66.87
76858;BME280;65830;0.000;0.000;2023-03-11T04:41:46;97838.44;;;11.79;67.68
76858;BME280;65830;0.000;0.000;2023-03-11T04:44:15;97838.25;;;11.80;67.23
76858;BME280;65830;0.000;0.000;2023-03-11T04:46:41;97837.78;;;11.77;67.21
76858;BME280;65830;0.000;0.000;2023-03-11T04:49:08;97831.84;;;11.75;67.44
76858;BME280;65830;0.000;0.000;2023-03-11T04:51:35;97825.91;;;11.72;67.37
76858;BME280;65830;0.000;0.000;2023-03-11T04:54:01;97847.16;;;11.72;67.39
76858;BME280;65830;0.000;0.000;2023-03-11T04:56:28;97851.25;;;11.75;67.35
76858;BME280;65830;0.000;0.000;2023-03-11T04:58:53;97839.31;;;11.86;66.54
76858;BME280;65830;0.000;0.000;2023-03-11T05:01:21;97839.69;;;12.04;65.95
76858;BME280;65830;0.000;0.000;2023-03-11T05:03:47;97836.38;;;11.96;66.08
76858;BME280;65830;0.000;0.000;2023-03-11T05:06:12;97838.50;;;11.85;66.56
76858;BME280;65830;0.000;0.000;2023-03-11T05:08:38;97840.66;;;11.97;65.91
76858;BME280;65830;0.000;0.000;2023-03-11T05:11:05;97839.66;;;11.98;65.80
76858;BME280;65830;0.000;0.000;2023-03-11T05:13:31;97851.06;;;11.91;66.15
76858;BME280;65830;0.000;0.000;2023-03-11T05:15:57;97855.34;;;11.92;66.04
76858;BME280;65830;0.000;0.000;2023-03-11T05:18:23;97858.63;;;11.95;65.85
76858;BME280;65830;0.000;0.000;2023-03-11T05:20:50;97845.63;;;12.06;65.59
76858;BME280;65830;0.000;0.000;2023-03-11T05:23:19;97841.00;;;12.15;64.91
76858;BME280;65830;0.000;0.000;2023-03-11T05:25:45;97845.34;;;12.23;64.86
76858;BME280;65830;0.000;0.000;2023-03-11T05:28:10;97847.63;;;12.26;64.54
76858;BME280;65830;0.000;0.000;2023-03-11T05:30:41;97848.28;;;12.35;64.49
76858;BME280;65830;0.000;0.000;2023-03-11T05:33:07;97839.56;;;12.41;63.97
76858;BME280;65830;0.000;0.000;2023-03-11T05:35:34;97837.09;;;12.46;63.61
76858;BME280;65830;0.000;0.000;2023-03-11T05:38:00;97852.69;;;12.49;63.94
76858;BME280;65830;0.000;0.000;2023-03-11T05:40:28;97834.28;;;12.54;63.58
76858;BME280;65830;0.000;0.000;2023-03-11T05:42:54;97843.97;;;12.68;63.17
76858;BME280;65830;0.000;0.000;2023-03-11T05:45:20;97836.03;;;12.75;63.21
76858;BME280;65830;0.000;0.000;2023-03-11T05:47:48;97847.75;;;12.87;62.90
76858;BME280;65830;0.000;0.000;2023-03-11T05:50:15;97842.69;;;12.99;62.20
76858;BME280;65830;0.000;0.000;2023-03-11T05:52:43;97844.56;;;13.05;61.85
76858;BME280;65830;0.000;0.000;2023-03-11T05:55:09;97832.91;;;13.13;61.94
76858;BME280;65830;0.000;0.000;2023-03-11T05:57:38;97837.22;;;13.14;61.70
76858;BME280;65830;0.000;0.000;2023-03-11T06:00:05;97833.72;;;13.14;61.72
76858;BME280;65830;0.000;0.000;2023-03-11T06:02:41;97832.53;;;13.23;61.63
76858;BME280;65830;0.000;0.000;2023-03-11T06:05:10;97825.44;;;13.37;61.27
76858;BME280;65830;0.000;0.000;2023-03-11T06:07:36;97823.63;;;13.44;61.09
76858;BME280;65830;0.000;0.000;2023-03-11T06:10:03;97828.09;;;13.43;61.00
76858;BME280;65830;0.000;0.000;2023-03-11T06:12:32;97823.22;;;13.60;60.92
76858;BME280;65830;0.000;0.000;2023-03-11T06:15:10;97812.16;;;13.83;60.17
76858;BME280;65830;0.000;0.000;2023-03-11T06:17:37;97811.53;;;13.95;59.50
76858;BME280;65830;0.000;0.000;2023-03-11T06:20:02;97800.88;;;14.08;59.35
76858;BME280;65830;0.000;0.000;2023-03-11T06:22:30;97790.38;;;14.13;59.01
76858;BME280;65830;0.000;0.000;2023-03-11T06:24:56;97795.28;;;14.23;58.85
76858;BME280;65830;0.000;0.000;2023-03-11T06:27:22;97803.91;;;14.32;58.43
76858;BME280;65830;0.000;0.000;2023-03-11T06:29:50;97802.25;;;14.30;58.51
76858;BME280;65830;0.000;0.000;2023-03-11T06:32:16;97795.72;;;14.33;58.34
76858;BME280;65830;0.000;0.000;2023-03-11T06:34:43;97797.09;;;14.42;58.23
76858;BME280;65830;0.000;0.000;2023-03-11T06:37:09;97787.88;;;14.45;58.15
76858;BME280;65830;0.000;0.000;2023-03-11T06:39:34;97791.78;;;14.42;57.94
76858;BME280;65830;0.000;0.000;2023-03-11T06:42:00;97802.22;;;14.50;58.00
76858;BME280;65830;0.000;0.000;2023-03-11T06:44:27;97801.00;;;14.46;58.17
76858;BME280;65830;0.000;0.000;2023-03-11T06:46:53;97799.38;;;14.39;58.28
76858;BME280;65830;0.000;0.000;2023-03-11T06:49:18;97799.81;;;14.36;57.68
76858;BME280;65830;0.000;0.000;2023-03-11T06:51:44;97805.59;;;14.19;58.38
76858;BME280;65830;0.000;0.000;2023-03-11T06:54:12;97785.47;;;14.23;58.00
76858;BME280;65830;0.000;0.000;2023-03-11T06:56:38;97788.75;;;14.25;57.71
76858;BME280;65830;0.000;0.000;2023-03-11T06:59:06;97787.47;;;14.35;57.15
76858;BME280;65830;0.000;0.000;2023-03-11T07:01:33;97796.50;;;14.40;56.41
76858;BME280;65830;0.000;0.000;2023-03-11T07:04:01;97787.03;;;14.44;56.12
76858;BME280;65830;0.000;0.000;2023-03-11T07:06:27;97794.25;;;14.57;55.83
76858;BME280;65830;0.000;0.000;2023-03-11T07:09:00;97796.06;;;14.63;55.08
76858;BME280;65830;0.000;0.000;2023-03-11T07:11:27;97790.88;;;14.75;54.73
76858;BME280;65830;0.000;0.000;2023-03-11T07:14:00;97789.22;;;14.81;54.71
76858;BME280;65830;0.000;0.000;2023-03-11T07:16:29;97789.75;;;15.03;54.18
76858;BME280;65830;0.000;0.000;2023-03-11T07:19:01;97787.88;;;15.03;54.17
76858;BME280;65830;0.000;0.000;2023-03-11T07:21:27;97798.25;;;15.25;53.74
76858;BME280;65830;0.000;0.000;2023-03-11T07:23:54;97789.22;;;15.19;53.79
76858;BME280;65830;0.000;0.000;2023-03-11T07:26:21;97786.28;;;15.34;53.21
76858;BME280;65830;0.000;0.000;2023-03-11T07:28:46;97785.69;;;15.32;52.89
76858;BME280;65830;0.000;0.000;2023-03-11T07:31:17;97785.31;;;15.54;52.76
76858;BME280;65830;0.000;0.000;2023-03-11T07:33:44;97780.34;;;15.57;52.17
76858;BME280;65830;0.000;0.000;2023-03-11T07:36:10;97783.50;;;15.47;51.90
76858;BME280;65830;0.000;0.000;2023-03-11T07:38:36;97789.50;;;15.43;52.14
76858;BME280;65830;0.000;0.000;2023-03-11T07:41:02;97792.34;;;15.48;52.00
76858;BME280;65830;0.000;0.000;2023-03-11T07:43:28;97784.09;;;15.49;52.53
76858;BME280;65830;0.000;0.000;2023-03-11T07:46:04;97790.91;;;15.45;52.69
76858;BME280;65830;0.000;0.000;2023-03-11T07:48:30;97783.63;;;15.27;53.33
76858;BME280;65830;0.000;0.000;2023-03-11T07:50:59;97782.91;;;15.45;53.09
76858;BME280;65830;0.000;0.000;2023-03-11T07:53:24;97792.44;;;15.60;52.70
76858;BME280;65830;0.000;0.000;2023-03-11T07:55:54;97788.84;;;15.47;52.26
76858;BME280;65830;0.000;0.000;2023-03-11T07:58:19;97796.06;;;15.47;52.81
76858;BME280;65830;0.000;0.000;2023-03-11T08:00:45;97786.97;;;15.55;52.21
76858;BME280;65830;0.000;0.000;2023-03-11T08:03:10;97774.53;;;15.67;52.04
76858;BME280;65830;0.000;0.000;2023-03-11T08:05:36;97772.66;;;15.74;52.21
76858;BME280;65830;0.000;0.000;2023-03-11T08:08:01;97767.44;;;15.79;51.19
76858;BME280;65830;0.000;0.000;2023-03-11T08:10:27;97769.00;;;15.94;49.72
76858;BME280;65830;0.000;0.000;2023-03-11T08:12:52;97765.47;;;16.18;48.76
76858;BME280;65830;0.000;0.000;2023-03-11T08:15:18;97772.09;;;16.34;48.35
76858;BME280;65830;0.000;0.000;2023-03-11T08:17:43;97770.59;;;16.38;47.99
76858;BME280;65830;0.000;0.000;2023-03-11T08:20:09;97775.13;;;16.56;47.27
76858;BME280;65830;0.000;0.000;2023-03-11T08:22:35;97756.69;;;16.48;46.67
76858;BME280;65830;0.000;0.000;2023-03-11T08:25:00;97762.94;;;16.60;46.49
76858;BME280;65830;0.000;0.000;2023-03-11T08:27:26;97769.75;;;16.75;46.49
76858;BME280;65830;0.000;0.000;2023-03-11T08:29:52;97755.72;;;16.61;46.31
76858;BME280;65830;0.000;0.000;2023-03-11T08:32:18;97772.00;;;16.78;46.56
76858;BME280;65830;0.000;0.000;2023-03-11T08:34:43;97770.97;;;16.97;46.26
76858;BME280;65830;0.000;0.000;2023-03-11T08:37:08;97775.00;;;16.88;46.27
76858;BME280;65830;0.000;0.000;2023-03-11T08:39:34;97772.41;;;17.12;45.63
76858;BME280;65830;0.000;0.000;2023-03-11T08:42:00;97766.78;;;17.32;45.73
76858;BME280;65830;0.000;0.000;2023-03-11T08:44:26;97764.59;;;17.40;45.69
76858;BME280;65830;0.000;0.000;2023-03-11T08:46:51;97773.50;;;17.64;45.17
76858;BME280;65830;0.000;0.000;2023-03-11T08:49:17;97769.31;;;17.80;44.53
76858;BME280;65830;0.000;0.000;2023-03-11T08:51:42;97766.06;;;17.78;43.73
76858;BME280;65830;0.000;0.000;2023-03-11T08:54:08;97765.31;;;17.59;43.87
76858;BME280;65830;0.000;0.000;2023-03-11T08:56:33;97764.63;;;17.52;43.76
76858;BME280;65830;0.000;0.000;2023-03-11T08:58:59;97765.69;;;17.63;43.72
76858;BME280;65830;0.000;0.000;2023-03-11T09:01:24;97757.44;;;17.76;43.80
76858;BME280;65830;0.000;0.000;2023-03-11T09:03:50;97754.25;;;17.67;43.33
76858;BME280;65830;0.000;0.000;2023-03-11T09:06:16;97754.16;;;17.62;43.37
76858;BME280;65830;0.000;0.000;2023-03-11T09:08:42;97746.16;;;17.44;43.67
76858;BME280;65830;0.000;0.000;2023-03-11T09:11:08;97749.78;;;17.50;43.38
76858;BME280;65830;0.000;0.000;2023-03-11T09:13:33;97736.13;;;17.27;44.00
76858;BME280;65830;0.000;0.000;2023-03-11T09:15:59;97739.00;;;17.26;44.11
76858;BME280;65830;0.000;0.000;2023-03-11T09:18:25;97740.25;;;17.54;43.82
76858;BME280;65830;0.000;0.000;2023-03-11T09:20:51;97722.19;;;17.73;43.14
76858;BME280;65830;0.000;0.000;2023-03-11T09:23:17;97730.91;;;17.44;43.31
76858;BME280;65830;0.000;0.000;2023-03-11T09:25:42;97714.34;;;17.47;43.15
76858;BME280;65830;0.000;0.000;2023-03-11T09:28:08;97712.25;;;17.50;43.28
76858;BME280;65830;0.000;0.000;2023-03-11T09:30:33;97710.97;;;17.64;43.00
76858;BME280;65830;0.000;0.000;2023-03-11T09:32:59;97702.03;;;17.58;42.67
76858;BME280;65830;0.000;0.000;2023-03-11T09:35:25;97700.59;;;17.56;42.56
76858;BME280;65830;0.000;0.000;2023-03-11T09:37:50;97706.91;;;17.50;42.29
76858;BME280;65830;0.000;0.000;2023-03-11T09:40:19;97699.91;;;17.37;42.76
76858;BME280;65830;0.000;0.000;2023-03-11T09:55:38;97703.56;;;17.90;42.12
76858;BME280;65830;0.000;0.000;2023-03-11T09:58:11;97691.06;;;18.07;41.50
76858;BME280;65830;0.000;0.000;2023-03-11T10:00:37;97685.03;;;18.00;40.77
76858;BME280;65830;0.000;0.000;2023-03-11T10:03:04;97688.13;;;18.20;40.41
76858;BME280;65830;0.000;0.000;2023-03-11T10:05:30;97693.38;;;18.27;40.42
76858;BME280;65830;0.000;0.000;2023-03-11T10:11:01;97686.16;;;18.16;39.59
76858;BME280;65830;0.000;0.000;2023-03-11T10:13:37;97691.28;;;18.17;39.64
76858;BME280;65830;0.000;0.000;2023-03-11T10:18:46;97702.41;;;18.61;38.48
76858;BME280;65830;0.000;0.000;2023-03-11T10:23:47;97707.06;;;18.66;37.66
76858;BME280;65830;0.000;0.000;2023-03-11T10:26:22;97705.84;;;18.74;37.54
76858;BME280;65830;0.000;0.000;2023-03-11T10:28:51;97694.00;;;18.58;38.36
76858;BME280;65830;0.000;0.000;2023-03-11T10:31:34;97705.66;;;18.63;37.77
76858;BME280;65830;0.000;0.000;2023-03-11T10:34:03;97695.38;;;19.01;37.54
76858;BME280;65830;0.000;0.000;2023-03-11T10:37:13;97682.03;;;18.77;38.07
76858;BME280;65830;0.000;0.000;2023-03-11T10:39:19;97690.75;;;18.84;37.68
76858;BME280;65830;0.000;0.000;2023-03-11T10:41:46;97680.22;;;18.54;37.49
76858;BME280;65830;0.000;0.000;2023-03-11T10:46:40;97681.03;;;18.55;38.37
76858;BME280;65830;0.000;0.000;2023-03-11T10:49:12;97683.56;;;18.73;37.70
76858;BME280;65830;0.000;0.000;2023-03-11T10:51:38;97675.56;;;18.78;36.90
76858;BME280;65830;0.000;0.000;2023-03-11T10:54:04;97673.72;;;18.50;37.36
76858;BME280;65830;0.000;0.000;2023-03-11T10:56:33;97667.59;;;18.55;37.18
76858;BME280;65830;0.000;0.000;2023-03-11T10:58:59;97671.38;;;18.82;37.04
76858;BME280;65830;0.000;0.000;2023-03-11T11:01:26;97673.03;;;18.83;37.12
76858;BME280;65830;0.000;0.000;2023-03-11T11:03:53;97662.53;;;18.70;36.71
76858;BME280;65830;0.000;0.000;2023-03-11T11:06:35;97672.41;;;18.93;36.38
76858;BME280;65830;0.000;0.000;2023-03-11T11:11:30;97655.00;;;19.47;35.94
76858;BME280;65830;0.000;0.000;2023-03-11T11:13:57;97657.13;;;19.78;34.72
76858;BME280;65830;0.000;0.000;2023-03-11T11:16:23;97653.03;;;20.15;33.92
76858;BME280;65830;0.000;0.000;2023-03-11T11:19:11;97654.53;;;20.72;33.46
76858;BME280;65830;0.000;0.000;2023-03-11T11:21:42;97650.00;;;20.55;33.13
76858;BME280;65830;0.000;0.000;2023-03-11T11:24:24;97646.16;;;20.24;33.39
76858;BME280;65830;0.000;0.000;2023-03-11T11:27:03;97650.09;;;20.16;33.64
76858;BME280;65830;0.000;0.000;2023-03-11T11:29:28;97647.56;;;20.54;33.29
76858;BME280;65830;0.000;0.000;2023-03-11T11:31:54;97649.38;;;20.48;32.90
76858;BME280;65830;0.000;0.000;2023-03-11T11:34:34;97632.59;;;20.41;32.45
76858;BME280;65830;0.000;0.000;2023-03-11T11:37:00;97640.00;;;20.29;32.04
76858;BME280;65830;0.000;0.000;2023-03-11T11:39:29;97640.63;;;20.36;31.84
76858;BME280;65830;0.000;0.000;2023-03-11T11:41:56;97630.72;;;20.63;31.87
76858;BME280;65830;0.000;0.000;2023-03-11T11:44:24;97623.81;;;20.51;32.01
76858;BME280;65830;0.000;0.000;2023-03-11T11:46:55;97630.88;;;20.30;31.75
76858;BME280;65830;0.000;0.000;2023-03-11T11:52:02;97617.25;;;21.23;31.08
76858;BME280;65830;0.000;0.000;2023-03-11T11:54:34;97617.19;;;22.61;28.75
76858;BME280;65830;0.000;0.000;2023-03-11T11:57:12;97637.03;;;23.28;25.46
76858;BME280;65830;0.000;0.000;2023-03-11T11:59:38;97615.88;;;24.57;23.64
76858;BME280;65830;0.000;0.000;2023-03-11T12:02:15;97616.06;;;24.71;23.00
76858;BME280;65830;0.000;0.000;2023-03-11T12:10:30;97590.19;;;24.34;24.09
76858;BME280;65830;0.000;0.000;2023-03-11T12:15:28;97591.81;;;26.07;22.57
76858;BME280;65830;0.000;0.000;2023-03-11T12:17:58;97592.41;;;26.66;21.51
76858;BME280;65830;0.000;0.000;2023-03-11T12:20:36;97579.88;;;26.84;21.68
76858;BME280;65830;0.000;0.000;2023-03-11T12:26:31;97593.53;;;27.36;20.54
76858;BME280;65830;0.000;0.000;2023-03-11T12:31:00;97586.94;;;27.37;20.63
76858;BME280;65830;0.000;0.000;2023-03-11T12:36:02;97590.44;;;28.39;19.77
76858;BME280;65830;0.000;0.000;2023-03-11T12:38:35;97575.97;;;28.66;20.02
76858;BME280;65830;0.000;0.000;2023-03-11T12:46:01;97577.56;;;26.77;21.20
76858;BME280;65830;0.000;0.000;2023-03-11T12:50:57;97591.47;;;24.96;23.53
76858;BME280;65830;0.000;0.000;2023-03-11T12:53:42;97589.88;;;23.86;24.38
76858;BME280;65830;0.000;0.000;2023-03-11T12:58:56;97608.78;;;22.47;27.74
76858;BME280;65830;0.000;0.000;2023-03-11T13:01:48;97589.91;;;22.73;28.53
76858;BME280;65830;0.000;0.000;2023-03-11T13:07:00;97603.28;;;24.22;26.28
76858;BME280;65830;0.000;0.000;2023-03-11T13:09:32;97607.53;;;23.47;27.14
76858;BME280;65830;0.000;0.000;2023-03-11T13:11:57;97604.28;;;23.30;27.65
76858;BME280;65830;0.000;0.000;2023-03-11T13:14:32;97615.34;;;22.92;27.89
76858;BME280;65830;0.000;0.000;2023-03-11T13:19:46;97631.84;;;22.86;27.71
76858;BME280;65830;0.000;0.000;2023-03-11T13:22:38;97637.16;;;22.45;28.13
76858;BME280;65830;0.000;0.000;2023-03-11T13:24:57;97640.47;;;22.04;29.13
76858;BME280;65830;0.000;0.000;2023-03-11T13:27:26;97654.78;;;21.62;29.93
76858;BME280;65830;0.000;0.000;2023-03-11T13:42:25;97648.13;;;20.78;31.15
76858;BME280;65830;0.000;0.000;2023-03-11T13:44:52;97648.41;;;21.09;30.84
76858;BME280;65830;0.000;0.000;2023-03-11T13:47:17;97649.72;;;21.06;30.67
76858;BME280;65830;0.000;0.000;2023-03-11T13:52:26;97657.00;;;21.06;30.97
76858;BME280;65830;0.000;0.000;2023-03-11T13:59:50;97655.78;;;22.41;28.35
76858;BME280;65830;0.000;0.000;2023-03-11T14:02:17;97659.06;;;22.58;28.14
76858;BME280;65830;0.000;0.000;2023-03-11T14:04:47;97657.97;;;22.49;27.98
76858;BME280;65830;0.000;0.000;2023-03-11T14:07:14;97652.22;;;21.83;29.22
76858;BME280;65830;0.000;0.000;2023-03-11T14:09:44;97650.75;;;21.32;30.26
76858;BME280;65830;0.000;0.000;2023-03-11T14:12:09;97656.16;;;21.65;30.02
76858;BME280;65830;0.000;0.000;2023-03-11T14:17:00;97653.44;;;21.32;30.81
76858;BME280;65830;0.000;0.000;2023-03-11T14:19:28;97657.69;;;22.51;29.21
76858;BME280;65830;0.000;0.000;2023-03-11T14:21:53;97659.06;;;22.58;28.92
76858;BME280;65830;0.000;0.000;2023-03-11T14:24:26;97655.38;;;22.95;28.68
76858;BME280;65830;0.000;0.000;2023-03-11T14:26:53;97656.19;;;22.12;29.21
76858;BME280;65830;0.000;0.000;2023-03-11T14:29:21;97651.81;;;22.06;29.82
76858;BME280;65830;0.000;0.000;2023-03-11T14:31:49;97661.28;;;22.72;29.23
76858;BME280;65830;0.000;0.000;2023-03-11T14:36:41;97665.31;;;22.69;28.83
76858;BME280;65830;0.000;0.000;2023-03-11T14:41:48;97665.13;;;21.11;30.12
76858;BME280;65830;0.000;0.000;2023-03-11T14:44:14;97666.06;;;20.94;30.40